sensor_id;sensor_type;location;lat;lon;timestamp;pressure;altitude;pressure_sealevel;temperature;humidity
85023;BME280;75348;43.126;-2.538;2024-03-23T00:54:28;100392.00;;;13.03;94.53
85023;BME280;75348;43.126;-2.538;2024-03-23T00:56:54;100357.59;;;12.84;94.22
85023;BME280;75348;43.126;-2.538;2024-03-23T00:59:20;100376.03;;;13.03;94.80
85023;BME280;75348;43.126;-2.538;2024-03-23T01:01:47;100352.84;;;12.78;93.80
85023;BME280;75348;43.126;-2.538;2024-03-23T01:04:13;100384.19;;;13.01;93.62
85023;BME280;75348;43.126;-2.538;2024-03-23T01:06:39;100343.34;;;12.76;93.36
85023;BME280;75348;43.126;-2.538;2024-03-23T01:09:05;100379.84;;;13.00;94.23
85023;BME280;75348;43.126;-2.538;2024-03-23T01:11:31;100386.69;;;13.03;93.29
85023;BME280;75348;43.126;-2.538;2024-03-23T01:13:57;100355.75;;;12.85;93.14
85023;BME280;75348;43.126;-2.538;2024-03-23T01:16:23;100388.13;;;12.97;93.79
85023;BME280;75348;43.126;-2.538;2024-03-23T01:18:49;100386.28;;;12.98;93.84
85023;BME280;75348;43.126;-2.538;2024-03-23T01:21:15;100353.16;;;12.75;93.56
85023;BME280;75348;43.126;-2.538;2024-03-23T01:23:41;100383.56;;;12.90;93.40
85023;BME280;75348;43.126;-2.538;2024-03-23T01:26:07;100381.91;;;12.89;93.67
85023;BME280;75348;43.126;-2.538;2024-03-23T01:28:33;100378.56;;;12.87;93.44
85023;BME280;75348;43.126;-2.538;2024-03-23T01:30:59;100349.63;;;12.67;93.60
85023;BME280;75348;43.126;-2.538;2024-03-23T01:33:25;100374.38;;;12.85;93.38
85023;BME280;75348;43.126;-2.538;2024-03-23T01:35:51;100375.22;;;12.85;93.91
85023;BME280;75348;43.126;-2.538;2024-03-23T01:38:17;100378.03;;;12.84;93.29
85023;BME280;75348;43.126;-2.538;2024-03-23T01:40:43;100381.69;;;12.83;93.15
85023;BME280;75348;43.126;-2.538;2024-03-23T01:43:08;100367.44;;;12.74;92.66
85023;BME280;75348;43.126;-2.538;2024-03-23T01:45:35;100376.28;;;12.75;93.29
85023;BME280;75348;43.126;-2.538;2024-03-23T01:48:01;100369.78;;;12.77;93.59
85023;BME280;75348;43.126;-2.538;2024-03-23T01:50:29;100366.47;;;12.75;93.24
85023;BME280;75348;43.126;-2.538;2024-03-23T01:53:02;100362.97;;;12.75;94.10
85023;BME280;75348;43.126;-2.538;2024-03-23T01:55:32;100357.34;;;12.78;93.37
85023;BME280;75348;43.126;-2.538;2024-03-23T01:57:58;100326.28;;;12.61;93.05
85023;BME280;75348;43.126;-2.538;2024-03-23T02:00:24;100353.69;;;12.79;93.10
85023;BME280;75348;43.126;-2.538;2024-03-23T02:02:51;100353.16;;;12.75;93.29
85023;BME280;75348;43.126;-2.538;2024-03-23T02:05:17;100346.47;;;12.71;93.18
85023;BME280;75348;43.126;-2.538;2024-03-23T02:07:43;100320.28;;;12.59;92.75
85023;BME280;75348;43.126;-2.538;2024-03-23T02:10:10;100355.16;;;12.73;92.91
85023;BME280;75348;43.126;-2.538;2024-03-23T02:12:38;100359.84;;;12.79;92.80
85023;BME280;75348;43.126;-2.538;2024-03-23T02:15:04;100359.31;;;12.76;92.63
85023;BME280;75348;43.126;-2.538;2024-03-23T02:17:33;100359.31;;;12.76;92.69
85023;BME280;75348;43.126;-2.538;2024-03-23T02:19:59;100352.03;;;12.78;92.22
85023;BME280;75348;43.126;-2.538;2024-03-23T02:22:35;100349.38;;;12.78;92.57
85023;BME280;75348;43.126;-2.538;2024-03-23T02:25:02;100342.16;;;12.70;92.27
85023;BME280;75348;43.126;-2.538;2024-03-23T02:27:28;100365.34;;;12.78;92.80
85023;BME280;75348;43.126;-2.538;2024-03-23T02:29:54;100355.66;;;12.77;92.11
85023;BME280;75348;43.126;-2.538;2024-03-23T02:32:20;100364.31;;;12.79;92.17
85023;BME280;75348;43.126;-2.538;2024-03-23T02:34:46;100368.41;;;12.83;92.53
85023;BME280;75348;43.126;-2.538;2024-03-23T02:37:12;100334.63;;;12.66;91.96
85023;BME280;75348;43.126;-2.538;2024-03-23T02:39:38;100365.00;;;12.81;92.18
85023;BME280;75348;43.126;-2.538;2024-03-23T02:42:04;100364.06;;;12.82;91.79
85023;BME280;75348;43.126;-2.538;2024-03-23T02:44:30;100354.34;;;12.81;91.50
85023;BME280;75348;43.126;-2.538;2024-03-23T02:46:56;100364.16;;;12.80;91.62
85023;BME280;75348;43.126;-2.538;2024-03-23T02:49:22;100368.66;;;12.80;91.19
85023;BME280;75348;43.126;-2.538;2024-03-23T02:51:48;100368.25;;;12.84;90.84
85023;BME280;75348;43.126;-2.538;2024-03-23T02:54:14;100335.75;;;12.63;90.42
85023;BME280;75348;43.126;-2.538;2024-03-23T02:56:40;100367.38;;;12.84;90.62
85023;BME280;75348;43.126;-2.538;2024-03-23T02:59:06;100363.19;;;12.81;90.65
85023;BME280;75348;43.126;-2.538;2024-03-23T03:01:32;100371.56;;;12.86;91.33
85023;BME280;75348;43.126;-2.538;2024-03-23T03:04:00;100359.47;;;12.74;91.08
85023;BME280;75348;43.126;-2.538;2024-03-23T03:06:26;100385.72;;;12.87;91.21
85023;BME280;75348;43.126;-2.538;2024-03-23T03:08:52;100382.69;;;12.82;91.18
85023;BME280;75348;43.126;-2.538;2024-03-23T03:11:18;100377.63;;;12.79;91.52
85023;BME280;75348;43.126;-2.538;2024-03-23T03:13:44;100376.94;;;12.77;92.15
85023;BME280;75348;43.126;-2.538;2024-03-23T03:16:11;100388.81;;;12.82;91.35
85023;BME280;75348;43.126;-2.538;2024-03-23T03:18:37;100393.22;;;12.74;90.71
85023;BME280;75348;43.126;-2.538;2024-03-23T03:21:06;100388.56;;;12.76;90.80
85023;BME280;75348;43.126;-2.538;2024-03-23T03:23:39;100392.91;;;12.77;90.95
85023;BME280;75348;43.126;-2.538;2024-03-23T03:26:06;100390.25;;;12.77;91.58
85023;BME280;75348;43.126;-2.538;2024-03-23T03:28:32;100378.47;;;12.62;91.31
85023;BME280;75348;43.126;-2.538;2024-03-23T03:31:01;100396.94;;;12.63;92.50
85023;BME280;75348;43.126;-2.538;2024-03-23T03:33:27;100368.03;;;12.43;91.55
85023;BME280;75348;43.126;-2.538;2024-03-23T03:35:54;100402.59;;;12.60;91.28
85023;BME280;75348;43.126;-2.538;2024-03-23T03:38:20;100408.72;;;12.61;91.30
85023;BME280;75348;43.126;-2.538;2024-03-23T03:40:46;100411.69;;;12.58;91.23
85023;BME280;75348;43.126;-2.538;2024-03-23T03:43:12;100410.38;;;12.62;91.39
85023;BME280;75348;43.126;-2.538;2024-03-23T03:45:38;100412.38;;;12.60;91.26
85023;BME280;75348;43.126;-2.538;2024-03-23T03:48:04;100410.16;;;12.55;91.12
85023;BME280;75348;43.126;-2.538;2024-03-23T03:50:30;100412.44;;;12.50;90.94
85023;BME280;75348;43.126;-2.538;2024-03-23T03:52:56;100421.94;;;12.53;91.20
85023;BME280;75348;43.126;-2.538;2024-03-23T03:55:22;100421.28;;;12.51;90.39
85023;BME280;75348;43.126;-2.538;2024-03-23T03:57:48;100425.13;;;12.56;90.01
85023;BME280;75348;43.126;-2.538;2024-03-23T04:00:14;100434.56;;;12.51;90.00
85023;BME280;75348;43.126;-2.538;2024-03-23T04:02:41;100431.19;;;12.49;89.84
85023;BME280;75348;43.126;-2.538;2024-03-23T04:05:07;100433.56;;;12.52;89.47
85023;BME280;75348;43.126;-2.538;2024-03-23T04:07:34;100439.19;;;12.49;89.65
85023;BME280;75348;43.126;-2.538;2024-03-23T04:10:00;100434.88;;;12.48;90.90
85023;BME280;75348;43.126;-2.538;2024-03-23T04:12:25;100426.44;;;12.52;90.04
85023;BME280;75348;43.126;-2.538;2024-03-23T04:14:51;100427.56;;;12.50;89.62
85023;BME280;75348;43.126;-2.538;2024-03-23T04:17:18;100426.19;;;12.46;90.21
85023;BME280;75348;43.126;-2.538;2024-03-23T04:19:44;100424.97;;;12.41;89.16
85023;BME280;75348;43.126;-2.538;2024-03-23T04:22:10;100417.59;;;12.35;89.37
85023;BME280;75348;43.126;-2.538;2024-03-23T04:24:36;100417.66;;;12.25;89.31
85023;BME280;75348;43.126;-2.538;2024-03-23T04:27:02;100422.09;;;12.34;89.28
85023;BME280;75348;43.126;-2.538;2024-03-23T04:29:28;100426.97;;;12.39;89.27
85023;BME280;75348;43.126;-2.538;2024-03-23T04:31:55;100421.09;;;12.35;88.79
85023;BME280;75348;43.126;-2.538;2024-03-23T04:34:21;100433.47;;;12.44;88.83
85023;BME280;75348;43.126;-2.538;2024-03-23T04:36:48;100441.75;;;12.41;88.81
85023;BME280;75348;43.126;-2.538;2024-03-23T04:39:14;100436.13;;;12.44;88.95
85023;BME280;75348;43.126;-2.538;2024-03-23T04:41:40;100441.91;;;12.40;89.01
85023;BME280;75348;43.126;-2.538;2024-03-23T04:44:06;100437.44;;;12.40;89.71
85023;BME280;75348;43.126;-2.538;2024-03-23T04:46:33;100438.72;;;12.36;89.97
85023;BME280;75348;43.126;-2.538;2024-03-23T04:48:59;100444.72;;;12.38;89.22
85023;BME280;75348;43.126;-2.538;2024-03-23T04:51:25;100444.72;;;12.38;88.60
85023;BME280;75348;43.126;-2.538;2024-03-23T04:53:51;100448.06;;;12.40;89.57
85023;BME280;75348;43.126;-2.538;2024-03-23T04:56:17;100455.53;;;12.37;89.30
85023;BME280;75348;43.126;-2.538;2024-03-23T04:58:43;100434.31;;;12.27;89.07
85023;BME280;75348;43.126;-2.538;2024-03-23T05:01:11;100459.00;;;12.37;88.44
85023;BME280;75348;43.126;-2.538;2024-03-23T05:03:37;100460.66;;;12.38;88.30
85023;BME280;75348;43.126;-2.538;2024-03-23T05:06:04;100468.47;;;12.40;87.19
85023;BME280;75348;43.126;-2.538;2024-03-23T05:08:31;100472.38;;;12.45;86.33
85023;BME280;75348;43.126;-2.538;2024-03-23T05:10:56;100462.94;;;12.33;87.49
85023;BME280;75348;43.126;-2.538;2024-03-23T05:13:22;100468.97;;;12.35;87.03
85023;BME280;75348;43.126;-2.538;2024-03-23T05:15:55;100466.78;;;12.21;87.40
85023;BME280;75348;43.126;-2.538;2024-03-23T05:18:22;100468.00;;;12.27;87.84
85023;BME280;75348;43.126;-2.538;2024-03-23T05:20:48;100448.78;;;12.15;87.04
85023;BME280;75348;43.126;-2.538;2024-03-23T05:23:14;100453.50;;;12.21;86.42
85023;BME280;75348;43.126;-2.538;2024-03-23T05:25:40;100467.19;;;12.26;86.29
85023;BME280;75348;43.126;-2.538;2024-03-23T05:28:06;100459.78;;;12.20;86.16
85023;BME280;75348;43.126;-2.538;2024-03-23T05:30:32;100463.28;;;12.21;84.62
85023;BME280;75348;43.126;-2.538;2024-03-23T05:32:59;100466.13;;;12.19;84.38
85023;BME280;75348;43.126;-2.538;2024-03-23T05:35:25;100467.31;;;11.98;84.86
85023;BME280;75348;43.126;-2.538;2024-03-23T05:37:50;100472.38;;;11.92;85.61
85023;BME280;75348;43.126;-2.538;2024-03-23T05:40:16;100465.69;;;11.88;86.47
85023;BME280;75348;43.126;-2.538;2024-03-23T05:42:42;100471.56;;;11.91;86.51
85023;BME280;75348;43.126;-2.538;2024-03-23T05:45:08;100472.09;;;11.95;86.82
85023;BME280;75348;43.126;-2.538;2024-03-23T05:47:34;100479.06;;;11.96;85.80
85023;BME280;75348;43.126;-2.538;2024-03-23T05:50:00;100481.03;;;11.94;85.81
85023;BME280;75348;43.126;-2.538;2024-03-23T05:52:27;100477.13;;;11.98;86.91
85023;BME280;75348;43.126;-2.538;2024-03-23T05:54:53;100487.47;;;12.00;87.42
85023;BME280;75348;43.126;-2.538;2024-03-23T05:57:19;100485.56;;;11.84;87.73
85023;BME280;75348;43.126;-2.538;2024-03-23T05:59:46;100491.34;;;11.70;89.87
85023;BME280;75348;43.126;-2.538;2024-03-23T06:02:12;100486.19;;;11.59;90.44
85023;BME280;75348;43.126;-2.538;2024-03-23T06:04:38;100497.69;;;11.50;92.02
85023;BME280;75348;43.126;-2.538;2024-03-23T06:07:04;100500.50;;;11.49;92.01
85023;BME280;75348;43.126;-2.538;2024-03-23T06:09:40;100503.13;;;11.39;93.04
85023;BME280;75348;43.126;-2.538;2024-03-23T06:12:06;100467.25;;;11.16;93.52
85023;BME280;75348;43.126;-2.538;2024-03-23T06:14:32;100503.00;;;11.41;94.08
85023;BME280;75348;43.126;-2.538;2024-03-23T06:16:59;100500.88;;;11.44;94.05
85023;BME280;75348;43.126;-2.538;2024-03-23T06:19:26;100489.00;;;11.39;94.37
85023;BME280;75348;43.126;-2.538;2024-03-23T06:21:53;100501.44;;;11.38;93.85
85023;BME280;75348;43.126;-2.538;2024-03-23T06:24:23;100479.69;;;11.16;94.72
85023;BME280;75348;43.126;-2.538;2024-03-23T06:26:50;100468.13;;;11.08;95.09
85023;BME280;75348;43.126;-2.538;2024-03-23T06:29:16;100497.16;;;11.18;95.42
85023;BME280;75348;43.126;-2.538;2024-03-23T06:31:42;100513.50;;;11.23;95.86
85023;BME280;75348;43.126;-2.538;2024-03-23T06:34:07;100523.38;;;11.21;97.04
85023;BME280;75348;43.126;-2.538;2024-03-23T06:36:34;100527.31;;;11.27;96.68
85023;BME280;75348;43.126;-2.538;2024-03-23T06:39:00;100521.72;;;11.20;96.59
85023;BME280;75348;43.126;-2.538;2024-03-23T06:41:26;100524.50;;;11.28;96.95
85023;BME280;75348;43.126;-2.538;2024-03-23T06:43:52;100522.56;;;11.21;95.56
85023;BME280;75348;43.126;-2.538;2024-03-23T06:46:18;100527.03;;;11.20;96.54
85023;BME280;75348;43.126;-2.538;2024-03-23T06:48:45;100535.97;;;11.19;95.66
85023;BME280;75348;43.126;-2.538;2024-03-23T06:51:11;100532.06;;;11.23;95.87
85023;BME280;75348;43.126;-2.538;2024-03-23T06:53:37;100538.19;;;11.33;95.88
85023;BME280;75348;43.126;-2.538;2024-03-23T06:56:03;100530.78;;;11.27;94.39
85023;BME280;75348;43.126;-2.538;2024-03-23T06:58:29;100534.25;;;11.37;95.85
85023;BME280;75348;43.126;-2.538;2024-03-23T07:00:55;100541.25;;;11.38;94.75
85023;BME280;75348;43.126;-2.538;2024-03-23T07:03:21;100529.66;;;11.39;94.88
85023;BME280;75348;43.126;-2.538;2024-03-23T07:05:47;100543.22;;;11.36;94.15
85023;BME280;75348;43.126;-2.538;2024-03-23T07:08:13;100542.41;;;11.36;93.61
85023;BME280;75348;43.126;-2.538;2024-03-23T07:10:44;100539.88;;;11.34;94.00
85023;BME280;75348;43.126;-2.538;2024-03-23T07:13:10;100532.06;;;11.23;91.62
85023;BME280;75348;43.126;-2.538;2024-03-23T07:15:36;100539.28;;;11.31;93.22
85023;BME280;75348;43.126;-2.538;2024-03-23T07:18:02;100518.66;;;11.15;92.84
85023;BME280;75348;43.126;-2.538;2024-03-23T07:20:28;100543.22;;;11.46;93.20
85023;BME280;75348;43.126;-2.538;2024-03-23T07:22:56;100540.56;;;11.36;91.88
85023;BME280;75348;43.126;-2.538;2024-03-23T07:25:22;100540.69;;;11.44;92.40
85023;BME280;75348;43.126;-2.538;2024-03-23T07:27:49;100532.91;;;11.52;93.14
85023;BME280;75348;43.126;-2.538;2024-03-23T07:30:15;100527.59;;;11.52;92.54
85023;BME280;75348;43.126;-2.538;2024-03-23T07:32:44;100538.31;;;11.60;90.77
85023;BME280;75348;43.126;-2.538;2024-03-23T07:35:10;100529.09;;;11.54;91.08
85023;BME280;75348;43.126;-2.538;2024-03-23T07:37:36;100518.06;;;11.40;90.61
85023;BME280;75348;43.126;-2.538;2024-03-23T07:40:02;100511.25;;;11.47;90.41
85023;BME280;75348;43.126;-2.538;2024-03-23T07:42:29;100534.84;;;11.59;89.88
85023;BME280;75348;43.126;-2.538;2024-03-23T07:44:55;100536.22;;;11.54;89.49
85023;BME280;75348;43.126;-2.538;2024-03-23T07:47:22;100503.28;;;11.28;87.94
85023;BME280;75348;43.126;-2.538;2024-03-23T07:49:48;100530.78;;;11.65;88.79
85023;BME280;75348;43.126;-2.538;2024-03-23T07:52:14;100547.09;;;11.79;87.71
85023;BME280;75348;43.126;-2.538;2024-03-23T07:54:40;100549.47;;;11.73;86.42
85023;BME280;75348;43.126;-2.538;2024-03-23T07:57:06;100529.22;;;11.62;85.75
85023;BME280;75348;43.126;-2.538;2024-03-23T07:59:32;100550.63;;;11.61;86.11
85023;BME280;75348;43.126;-2.538;2024-03-23T08:02:00;100556.09;;;11.59;85.79
85023;BME280;75348;43.126;-2.538;2024-03-23T08:04:27;100530.63;;;11.38;85.87
85023;BME280;75348;43.126;-2.538;2024-03-23T08:06:53;100556.09;;;11.59;85.49
85023;BME280;75348;43.126;-2.538;2024-03-23T08:09:19;100552.56;;;11.68;86.80
85023;BME280;75348;43.126;-2.538;2024-03-23T08:11:45;100546.56;;;11.66;85.46
85023;BME280;75348;43.126;-2.538;2024-03-23T08:14:12;100515.00;;;11.35;84.14
85023;BME280;75348;43.126;-2.538;2024-03-23T08:16:38;100533.28;;;11.38;85.19
85023;BME280;75348;43.126;-2.538;2024-03-23T08:19:04;100557.19;;;11.66;85.57
85023;BME280;75348;43.126;-2.538;2024-03-23T08:21:30;100559.16;;;11.64;86.19
85023;BME280;75348;43.126;-2.538;2024-03-23T08:23:56;100557.31;;;11.65;86.42
85023;BME280;75348;43.126;-2.538;2024-03-23T08:26:22;100571.09;;;11.87;86.20
85023;BME280;75348;43.126;-2.538;2024-03-23T08:28:48;100565.00;;;11.77;85.24
85023;BME280;75348;43.126;-2.538;2024-03-23T08:31:14;100566.09;;;11.75;84.46
85023;BME280;75348;43.126;-2.538;2024-03-23T08:33:40;100572.25;;;11.85;85.67
85023;BME280;75348;43.126;-2.538;2024-03-23T08:36:10;100580.22;;;11.85;85.73
85023;BME280;75348;43.126;-2.538;2024-03-23T08:38:40;100575.75;;;11.76;85.46
85023;BME280;75348;43.126;-2.538;2024-03-23T08:41:07;100582.75;;;11.77;86.06
85023;BME280;75348;43.126;-2.538;2024-03-23T08:43:39;100577.25;;;11.88;84.62
85023;BME280;75348;43.126;-2.538;2024-03-23T08:46:10;100583.44;;;11.79;84.01
85023;BME280;75348;43.126;-2.538;2024-03-23T08:48:37;100579.53;;;11.64;83.42
85023;BME280;75348;43.126;-2.538;2024-03-23T08:51:04;100581.06;;;11.76;83.51
85023;BME280;75348;43.126;-2.538;2024-03-23T08:53:31;100576.16;;;11.81;84.27
85023;BME280;75348;43.126;-2.538;2024-03-23T08:55:58;100553.41;;;11.69;85.01
85023;BME280;75348;43.126;-2.538;2024-03-23T08:58:25;100578.50;;;11.93;84.19
85023;BME280;75348;43.126;-2.538;2024-03-23T09:00:55;100575.00;;;12.02;83.00
85023;BME280;75348;43.126;-2.538;2024-03-23T09:03:25;100580.75;;;11.98;84.26
85023;BME280;75348;43.126;-2.538;2024-03-23T09:05:52;100581.44;;;11.99;83.88
85023;BME280;75348;43.126;-2.538;2024-03-23T09:08:18;100580.88;;;11.96;83.24
85023;BME280;75348;43.126;-2.538;2024-03-23T09:10:45;100546.00;;;11.72;83.52
85023;BME280;75348;43.126;-2.538;2024-03-23T09:13:11;100558.41;;;11.72;84.20
85023;BME280;75348;43.126;-2.538;2024-03-23T09:15:44;100580.91;;;11.87;83.28
85023;BME280;75348;43.126;-2.538;2024-03-23T09:18:11;100542.78;;;11.69;84.15
85023;BME280;75348;43.126;-2.538;2024-03-23T09:20:36;100536.19;;;11.73;83.55
85023;BME280;75348;43.126;-2.538;2024-03-23T09:23:03;100577.81;;;11.91;83.21
85023;BME280;75348;43.126;-2.538;2024-03-23T09:25:28;100584.94;;;11.91;84.34
85023;BME280;75348;43.126;-2.538;2024-03-23T09:27:54;100589.28;;;11.92;82.61
85023;BME280;75348;43.126;-2.538;2024-03-23T09:30:20;100572.38;;;11.93;83.10
85023;BME280;75348;43.126;-2.538;2024-03-23T09:32:46;100585.06;;;11.98;82.80
85023;BME280;75348;43.126;-2.538;2024-03-23T09:35:12;100581.16;;;11.93;82.44
85023;BME280;75348;43.126;-2.538;2024-03-23T09:37:38;100580.75;;;11.98;83.66
85023;BME280;75348;43.126;-2.538;2024-03-23T09:40:10;100587.81;;;12.06;83.72
85023;BME280;75348;43.126;-2.538;2024-03-23T09:42:40;100587.00;;;12.06;83.38
85023;BME280;75348;43.126;-2.538;2024-03-23T09:45:21;100577.69;;;11.93;81.61
85023;BME280;75348;43.126;-2.538;2024-03-23T09:47:47;100580.56;;;12.08;80.83
85023;BME280;75348;43.126;-2.538;2024-03-23T09:50:14;100576.97;;;11.91;81.44
85023;BME280;75348;43.126;-2.538;2024-03-23T09:52:40;100580.00;;;12.05;82.26
85023;BME280;75348;43.126;-2.538;2024-03-23T09:55:08;100573.22;;;12.29;82.83
85023;BME280;75348;43.126;-2.538;2024-03-23T09:57:35;100567.81;;;12.48;82.05
85023;BME280;75348;43.126;-2.538;2024-03-23T10:00:02;100564.88;;;12.51;81.93
85023;BME280;75348;43.126;-2.538;2024-03-23T10:02:29;100557.19;;;12.48;80.57
85023;BME280;75348;43.126;-2.538;2024-03-23T10:04:55;100561.63;;;12.47;79.14
85023;BME280;75348;43.126;-2.538;2024-03-23T10:07:23;100563.75;;;12.44;80.26
85023;BME280;75348;43.126;-2.538;2024-03-23T10:09:49;100549.47;;;12.18;80.63
85023;BME280;75348;43.126;-2.538;2024-03-23T10:12:18;100553.94;;;12.27;83.18
85023;BME280;75348;43.126;-2.538;2024-03-23T10:14:45;100540.13;;;12.41;82.05
85023;BME280;75348;43.126;-2.538;2024-03-23T10:17:16;100545.34;;;12.60;79.26
85023;BME280;75348;43.126;-2.538;2024-03-23T10:19:46;100550.94;;;12.57;81.57
85023;BME280;75348;43.126;-2.538;2024-03-23T10:22:17;100518.84;;;12.41;81.08
85023;BME280;75348;43.126;-2.538;2024-03-23T10:24:44;100541.72;;;12.61;80.99
85023;BME280;75348;43.126;-2.538;2024-03-23T10:27:15;100529.63;;;12.40;81.07
85023;BME280;75348;43.126;-2.538;2024-03-23T10:29:44;100534.59;;;12.25;81.67
85023;BME280;75348;43.126;-2.538;2024-03-23T10:32:11;100535.50;;;12.70;80.78
85023;BME280;75348;43.126;-2.538;2024-03-23T10:34:37;100531.44;;;13.10;79.74
85023;BME280;75348;43.126;-2.538;2024-03-23T10:37:04;100523.53;;;13.35;77.93
85023;BME280;75348;43.126;-2.538;2024-03-23T10:39:40;100518.09;;;13.44;77.74
85023;BME280;75348;43.126;-2.538;2024-03-23T10:42:08;100509.50;;;13.50;76.41
85023;BME280;75348;43.126;-2.538;2024-03-23T10:44:36;100485.88;;;13.30;77.17
85023;BME280;75348;43.126;-2.538;2024-03-23T10:47:03;100476.84;;;13.74;74.70
85023;BME280;75348;43.126;-2.538;2024-03-23T10:49:31;100504.31;;;13.99;75.51
85023;BME280;75348;43.126;-2.538;2024-03-23T10:51:58;100478.69;;;13.73;73.28
85023;BME280;75348;43.126;-2.538;2024-03-23T10:54:25;100496.28;;;14.17;74.42
85023;BME280;75348;43.126;-2.538;2024-03-23T10:57:13;100497.09;;;14.17;73.08
85023;BME280;75348;43.126;-2.538;2024-03-23T10:59:40;100496.72;;;14.04;74.97
85023;BME280;75348;43.126;-2.538;2024-03-23T11:02:07;100498.09;;;13.91;73.77
85023;BME280;75348;43.126;-2.538;2024-03-23T11:04:37;100494.81;;;13.72;73.83
85023;BME280;75348;43.126;-2.538;2024-03-23T11:09:50;100482.81;;;13.68;72.50
85023;BME280;75348;43.126;-2.538;2024-03-23T11:15:00;100475.66;;;14.01;73.02
85023;BME280;75348;43.126;-2.538;2024-03-23T11:17:26;100466.59;;;13.86;72.11
85023;BME280;75348;43.126;-2.538;2024-03-23T11:19:58;100474.41;;;13.88;74.03
85023;BME280;75348;43.126;-2.538;2024-03-23T11:22:47;100468.63;;;13.92;71.11
85023;BME280;75348;43.126;-2.538;2024-03-23T11:25:26;100466.03;;;13.50;72.98
85023;BME280;75348;43.126;-2.538;2024-03-23T11:27:54;100466.22;;;13.81;71.27
85023;BME280;75348;43.126;-2.538;2024-03-23T11:30:22;100459.91;;;13.82;73.23
85023;BME280;75348;43.126;-2.538;2024-03-23T11:32:53;100451.81;;;14.25;70.51
85023;BME280;75348;43.126;-2.538;2024-03-23T11:35:29;100437.91;;;14.55;69.28
85023;BME280;75348;43.126;-2.538;2024-03-23T11:40:35;100432.25;;;14.66;67.93
85023;BME280;75348;43.126;-2.538;2024-03-23T11:43:03;100414.81;;;13.89;69.64
85023;BME280;75348;43.126;-2.538;2024-03-23T11:45:37;100429.13;;;14.21;70.56
85023;BME280;75348;43.126;-2.538;2024-03-23T11:48:16;100430.59;;;14.80;67.45
85023;BME280;75348;43.126;-2.538;2024-03-23T11:50:53;100422.56;;;15.12;66.30
85023;BME280;75348;43.126;-2.538;2024-03-23T11:53:24;100419.94;;;15.20;65.45
85023;BME280;75348;43.126;-2.538;2024-03-23T11:55:55;100421.09;;;15.02;67.85
85023;BME280;75348;43.126;-2.538;2024-03-23T11:58:25;100417.06;;;15.06;68.12
85023;BME280;75348;43.126;-2.538;2024-03-23T12:03:18;100405.25;;;15.08;65.78
85023;BME280;75348;43.126;-2.538;2024-03-23T12:05:49;100402.84;;;15.53;62.95
85023;BME280;75348;43.126;-2.538;2024-03-23T12:08:29;100403.66;;;15.61;64.46
85023;BME280;75348;43.126;-2.538;2024-03-23T12:11:12;100401.75;;;15.77;63.57
85023;BME280;75348;43.126;-2.538;2024-03-23T12:13:39;100400.22;;;16.81;60.42
85023;BME280;75348;43.126;-2.538;2024-03-23T12:18:44;100367.28;;;16.95;59.17
85023;BME280;75348;43.126;-2.538;2024-03-23T12:21:11;100383.69;;;17.14;57.62
85023;BME280;75348;43.126;-2.538;2024-03-23T12:23:40;100379.81;;;16.80;58.23
85023;BME280;75348;43.126;-2.538;2024-03-23T12:26:07;100357.56;;;15.97;61.12
85023;BME280;75348;43.126;-2.538;2024-03-23T12:28:33;100367.31;;;15.36;63.97
85023;BME280;75348;43.126;-2.538;2024-03-23T12:30:59;100371.84;;;15.20;65.56
85023;BME280;75348;43.126;-2.538;2024-03-23T12:33:25;100365.28;;;15.54;63.97
85023;BME280;75348;43.126;-2.538;2024-03-23T12:35:51;100369.34;;;15.18;64.45
85023;BME280;75348;43.126;-2.538;2024-03-23T12:38:17;100368.81;;;15.39;63.75
85023;BME280;75348;43.126;-2.538;2024-03-23T12:40:50;100366.13;;;15.47;63.23
85023;BME280;75348;43.126;-2.538;2024-03-23T12:43:16;100361.56;;;15.55;63.34
85023;BME280;75348;43.126;-2.538;2024-03-23T12:45:46;100370.41;;;15.71;62.56
85023;BME280;75348;43.126;-2.538;2024-03-23T12:48:13;100347.81;;;15.74;60.91
85023;BME280;75348;43.126;-2.538;2024-03-23T12:50:38;100344.50;;;15.18;63.01
85023;BME280;75348;43.126;-2.538;2024-03-23T12:53:04;100349.25;;;15.92;61.29
85023;BME280;75348;43.126;-2.538;2024-03-23T12:55:30;100355.00;;;15.73;61.11
85023;BME280;75348;43.126;-2.538;2024-03-23T12:57:56;100350.81;;;15.17;62.79
85023;BME280;75348;43.126;-2.538;2024-03-23T13:00:22;100345.13;;;15.74;62.27
85023;BME280;75348;43.126;-2.538;2024-03-23T13:02:48;100343.97;;;15.30;62.79
85023;BME280;75348;43.126;-2.538;2024-03-23T13:05:14;100338.25;;;15.49;63.41
85023;BME280;75348;43.126;-2.538;2024-03-23T13:07:40;100340.41;;;15.46;62.68
85023;BME280;75348;43.126;-2.538;2024-03-23T13:10:07;100334.72;;;15.49;61.07
85023;BME280;75348;43.126;-2.538;2024-03-23T13:12:33;100321.78;;;15.06;62.64
85023;BME280;75348;43.126;-2.538;2024-03-23T13:14:59;100322.94;;;15.12;62.76
85023;BME280;75348;43.126;-2.538;2024-03-23T13:17:26;100312.66;;;15.55;62.66
85023;BME280;75348;43.126;-2.538;2024-03-23T13:19:55;100315.47;;;15.61;61.27
85023;BME280;75348;43.126;-2.538;2024-03-23T13:22:24;100316.00;;;15.49;59.75
85023;BME280;75348;43.126;-2.538;2024-03-23T13:24:50;100305.22;;;15.34;59.81
85023;BME280;75348;43.126;-2.538;2024-03-23T13:27:16;100297.94;;;16.63;57.08
85023;BME280;75348;43.126;-2.538;2024-03-23T13:29:42;100282.81;;;15.43;59.62
85023;BME280;75348;43.126;-2.538;2024-03-23T13:32:08;100295.69;;;15.40;60.07
85023;BME280;75348;43.126;-2.538;2024-03-23T13:34:36;100305.03;;;15.36;60.82
85023;BME280;75348;43.126;-2.538;2024-03-23T13:37:02;100291.25;;;15.62;60.78
85023;BME280;75348;43.126;-2.538;2024-03-23T13:39:29;100246.75;;;15.69;60.34
85023;BME280;75348;43.126;-2.538;2024-03-23T13:41:56;100282.88;;;15.65;60.39
85023;BME280;75348;43.126;-2.538;2024-03-23T13:44:22;100277.81;;;15.40;60.51
85023;BME280;75348;43.126;-2.538;2024-03-23T13:46:48;100276.34;;;15.30;62.02